createdAt,value
2018-10-18T00:01:06.946Z,38.87
2018-10-18T00:03:35.804Z,39.93
2018-10-18T00:06:04.297Z,40.40
2018-10-18T00:08:32.794Z,39.07
2018-10-18T00:11:01.355Z,37.17
2018-10-18T00:13:29.815Z,37.03
2018-10-18T00:15:58.541Z,38.33
2018-10-18T00:18:27.002Z,38.63
2018-10-18T00:20:55.579Z,37.77
2018-10-18T00:23:24.185Z,38.70
2018-10-18T00:25:52.751Z,39.13
2018-10-18T00:28:21.680Z,38.60
2018-10-18T00:30:50.167Z,36.07
2018-10-18T00:33:18.720Z,36.37
2018-10-18T00:35:47.497Z,36.93
2018-10-18T00:38:16.083Z,35.97
2018-10-18T00:40:44.526Z,36.33
2018-10-18T00:43:13.425Z,36.37
2018-10-18T00:45:41.904Z,34.83
2018-10-18T00:48:10.538Z,33.63
2018-10-18T00:50:39.048Z,35.40
2018-10-18T00:53:07.614Z,36.07
2018-10-18T00:55:36.818Z,36.37
2018-10-18T00:58:05.429Z,33.57
2018-10-18T01:00:33.881Z,35.03
2018-10-18T01:03:02.320Z,33.27
2018-10-18T01:05:30.772Z,35.40
2018-10-18T01:07:59.256Z,35.60
2018-10-18T01:10:27.779Z,33.93
2018-10-18T01:12:56.309Z,37.17
2018-10-18T01:15:24.906Z,35.30
2018-10-18T01:17:53.415Z,40.27
2018-10-18T01:20:21.912Z,40.67
2018-10-18T01:22:50.383Z,39.83
2018-10-18T01:25:18.891Z,42.97
2018-10-18T01:27:47.536Z,41.80
2018-10-18T01:30:16.069Z,40.67
2018-10-18T01:32:44.491Z,41.17
2018-10-18T01:35:12.964Z,41.27
2018-10-18T01:37:42.117Z,39.23
2018-10-18T01:40:10.603Z,40.30
2018-10-18T01:42:39.082Z,42.50
2018-10-18T01:45:07.553Z,40.17
2018-10-18T01:47:36.148Z,40.63
2018-10-18T01:50:05.660Z,42.80
2018-10-18T01:52:34.159Z,41.63
2018-10-18T01:55:03.570Z,43.37
2018-10-18T01:57:32.047Z,43.10
2018-10-18T02:00:00.501Z,42.33
2018-10-18T02:02:29.069Z,44.37
2018-10-18T02:04:57.560Z,42.50
2018-10-18T02:07:26.023Z,42.67
2018-10-18T02:09:54.962Z,45.10
2018-10-18T02:12:23.541Z,44.77
2018-10-18T02:14:51.999Z,44.77
2018-10-18T02:17:20.459Z,44.90
2018-10-18T02:19:48.969Z,50.43
2018-10-18T02:22:17.469Z,54.80
2018-10-18T02:24:45.915Z,54.50
2018-10-18T02:27:14.529Z,53.67
2018-10-18T02:29:42.979Z,58.13
2018-10-18T02:32:11.499Z,60.77
2018-10-18T02:34:39.971Z,59.37
2018-10-18T02:37:08.516Z,63.10
2018-10-18T02:39:36.970Z,55.70
2018-10-18T02:42:06.076Z,60.93
2018-10-18T02:44:34.607Z,57.67
2018-10-18T02:47:03.121Z,63.93
2018-10-18T02:49:31.587Z,72.37
2018-10-18T02:52:00.065Z,77.43
2018-10-18T02:54:28.743Z,88.60
2018-10-18T02:56:57.200Z,88.33
2018-10-18T02:59:25.655Z,94.07
2018-10-18T03:01:54.175Z,96.77
2018-10-18T03:04:22.766Z,99.97
2018-10-18T03:06:51.214Z,102.17
2018-10-18T03:09:19.730Z,100.13
2018-10-18T03:11:48.365Z,103.73
2018-10-18T03:14:16.829Z,105.47
2018-10-18T03:16:45.400Z,95.93
2018-10-18T03:19:13.900Z,98.30
2018-10-18T03:21:42.472Z,97.30
2018-10-18T03:24:10.976Z,100.97
2018-10-18T03:26:39.460Z,97.97
2018-10-18T03:29:07.900Z,93.57
2018-10-18T03:31:36.360Z,96.13
2018-10-18T03:34:05.627Z,92.37
2018-10-18T03:36:35.980Z,93.93
2018-10-18T03:39:07.871Z,89.77
2018-10-18T03:41:36.528Z,91.60
2018-10-18T03:44:05.360Z,91.13
2018-10-18T03:46:34.173Z,92.57
2018-10-18T03:49:03.389Z,90.27
2018-10-18T03:51:31.816Z,88.67
2018-10-18T03:54:00.314Z,88.37
2018-10-18T03:56:28.790Z,85.77
2018-10-18T03:58:57.329Z,83.30
2018-10-18T04:01:25.816Z,82.83
2018-10-18T04:03:54.340Z,84.30
2018-10-18T04:06:22.910Z,83.60
2018-10-18T04:08:51.370Z,79.23
2018-10-18T04:11:19.885Z,80.17
2018-10-18T04:13:48.374Z,80.60
2018-10-18T04:16:16.883Z,79.07
2018-10-18T04:18:45.374Z,75.87
2018-10-18T04:21:13.855Z,78.20
2018-10-18T04:23:42.336Z,80.20
2018-10-18T04:26:10.844Z,78.13
2018-10-18T04:28:39.348Z,78.20
2018-10-18T04:31:07.840Z,78.27
2018-10-18T04:33:36.338Z,76.30
2018-10-18T04:36:05.191Z,73.43
2018-10-18T04:38:33.652Z,73.17
2018-10-18T04:41:02.241Z,72.00
2018-10-18T04:43:30.718Z,69.90
2018-10-18T04:45:59.197Z,70.97
2018-10-18T04:48:27.823Z,69.13
2018-10-18T04:50:56.187Z,66.93
2018-10-18T04:53:24.688Z,63.40
2018-10-18T04:55:53.223Z,65.10
2018-10-18T04:58:22.535Z,67.13
2018-10-18T05:00:51.601Z,67.47
2018-10-18T05:03:20.268Z,67.40
2018-10-18T05:05:58.056Z,64.53
2018-10-18T05:08:27.519Z,64.00
2018-10-18T05:10:56.324Z,65.33
2018-10-18T05:13:25.508Z,63.80
2018-10-18T05:15:54.008Z,58.27
2018-10-18T05:18:22.985Z,62.43
2018-10-18T05:20:51.528Z,59.27
2018-10-18T05:23:19.995Z,57.30
2018-10-18T05:25:49.407Z,54.60
2018-10-18T05:28:18.145Z,55.13
2018-10-18T05:30:46.809Z,54.50
2018-10-18T05:33:15.368Z,52.83
2018-10-18T05:35:43.890Z,55.20
2018-10-18T05:38:12.504Z,54.27
2018-10-18T05:40:41.035Z,53.10
2018-10-18T05:43:09.613Z,55.43
2018-10-18T05:45:38.051Z,54.77
2018-10-18T05:48:06.614Z,51.87
2018-10-18T05:50:35.155Z,53.70
2018-10-18T05:53:03.944Z,57.23
2018-10-18T05:55:32.457Z,55.83
2018-10-18T05:58:00.925Z,55.90
2018-10-18T06:00:30.367Z,56.47
2018-10-18T06:02:58.944Z,55.10
2018-10-18T06:05:27.814Z,55.90
2018-10-18T06:07:56.313Z,55.47
2018-10-18T06:10:36.248Z,53.57
2018-10-18T06:13:04.904Z,52.47
2018-10-18T06:15:33.436Z,52.33
2018-10-18T06:18:02.023Z,51.13
2018-10-18T06:20:30.557Z,51.20
2018-10-18T06:22:59.213Z,50.53
2018-10-18T06:25:27.573Z,46.07
2018-10-18T06:27:56.143Z,48.17
2018-10-18T06:30:24.667Z,48.47
2018-10-18T06:32:53.162Z,47.60
2018-10-18T06:35:21.795Z,46.67
2018-10-18T06:37:50.434Z,46.30
2018-10-18T06:40:19.207Z,44.60
2018-10-18T06:42:47.693Z,43.43
2018-10-18T06:45:17.557Z,42.40
2018-10-18T06:47:46.569Z,44.07
2018-10-18T06:50:17.272Z,43.23
2018-10-18T06:52:45.760Z,43.53
2018-10-18T06:55:14.398Z,42.17
2018-10-18T06:57:43.337Z,44.43
2018-10-18T07:00:14.532Z,41.87
2018-10-18T07:02:43.613Z,39.80
2018-10-18T07:05:13.280Z,40.00
2018-10-18T07:07:42.068Z,40.43
2018-10-18T07:10:10.590Z,38.53
2018-10-18T07:12:39.474Z,43.60
2018-10-18T07:15:08.989Z,42.63
2018-10-18T07:17:38.691Z,39.90
2018-10-18T07:20:07.724Z,40.50
2018-10-18T07:22:36.800Z,37.80
2018-10-18T07:25:06.577Z,37.47
2018-10-18T07:27:35.035Z,34.23
2018-10-18T07:30:03.719Z,33.73
2018-10-18T07:32:32.168Z,35.47
2018-10-18T07:35:01.337Z,32.07
2018-10-18T07:37:29.732Z,30.67
2018-10-18T07:39:58.224Z,30.00
2018-10-18T07:42:26.808Z,27.47
2018-10-18T07:44:55.302Z,27.70
2018-10-18T07:47:23.820Z,27.03
2018-10-18T07:49:53.277Z,27.60
2018-10-18T07:52:21.737Z,26.87
2018-10-18T07:54:50.387Z,27.27
2018-10-18T07:57:18.939Z,26.87
2018-10-18T07:59:48.080Z,26.87
2018-10-18T08:02:16.553Z,26.13
2018-10-18T08:04:45.567Z,26.40
2018-10-18T08:07:14.153Z,26.07
2018-10-18T08:09:42.615Z,25.37
2018-10-18T08:12:11.102Z,24.17
2018-10-18T08:14:39.603Z,24.73
2018-10-18T08:17:08.131Z,27.60
2018-10-18T08:19:36.621Z,26.70
2018-10-18T08:22:05.449Z,26.77
2018-10-18T08:24:33.938Z,27.60
2018-10-18T08:27:02.442Z,27.70
2018-10-18T08:29:30.909Z,25.13
2018-10-18T08:31:59.449Z,27.10
2018-10-18T08:34:27.965Z,29.23
2018-10-18T08:36:56.533Z,27.57
2018-10-18T08:39:25.021Z,27.43
2018-10-18T08:41:53.626Z,28.87
2018-10-18T08:44:22.425Z,26.17
2018-10-18T08:46:50.968Z,27.03
2018-10-18T08:49:19.414Z,26.80
2018-10-18T08:51:48.079Z,25.83
2018-10-18T08:54:16.560Z,24.70
2018-10-18T08:56:45.052Z,27.87
2018-10-18T08:59:13.552Z,30.70
2018-10-18T09:01:42.594Z,25.80
2018-10-18T09:04:11.568Z,22.90
2018-10-18T09:06:40.109Z,23.97
2018-10-18T09:09:09.199Z,24.67
2018-10-18T09:11:37.807Z,35.63
2018-10-18T09:14:07.702Z,33.10
2018-10-18T09:16:36.218Z,30.73
2018-10-18T09:19:05.265Z,26.73
2018-10-18T09:21:33.707Z,24.73
2018-10-18T09:24:02.149Z,23.87
2018-10-18T09:26:30.877Z,25.47
2018-10-18T09:28:59.323Z,24.80
2018-10-18T09:31:28.434Z,22.90
2018-10-18T09:33:56.900Z,24.07
2018-10-18T09:36:26.831Z,22.60
2018-10-18T09:38:55.409Z,22.33
2018-10-18T09:41:23.951Z,20.57
2018-10-18T09:43:58.504Z,20.33
2018-10-18T09:46:27.353Z,19.70
2018-10-18T09:48:55.819Z,20.40
2018-10-18T09:51:24.413Z,18.73
2018-10-18T09:53:52.861Z,19.30
2018-10-18T09:56:21.584Z,20.67
2018-10-18T09:58:50.633Z,20.17
2018-10-18T10:01:24.633Z,20.30
2018-10-18T10:03:53.146Z,19.97
2018-10-18T10:06:21.629Z,19.63
2018-10-18T10:08:50.348Z,19.13
2018-10-18T10:11:18.839Z,19.00
2018-10-18T10:13:47.331Z,19.40
2018-10-18T10:16:16.823Z,19.47
2018-10-18T10:18:45.528Z,19.47
2018-10-18T10:21:14.425Z,19.57
2018-10-18T10:23:42.860Z,19.90
2018-10-18T10:26:11.419Z,18.03
2018-10-18T10:28:39.873Z,18.37
2018-10-18T10:31:09.150Z,19.33
2018-10-18T10:33:37.595Z,18.60
2018-10-18T10:36:06.156Z,18.53
2018-10-18T10:38:35.076Z,18.33
2018-10-18T10:41:03.598Z,17.97
2018-10-18T10:43:32.121Z,18.33
2018-10-18T10:46:00.616Z,18.17
2018-10-18T10:48:29.071Z,18.70
2018-10-18T10:50:57.815Z,18.97
2018-10-18T10:53:26.384Z,18.80
2018-10-18T10:55:54.883Z,17.60
2018-10-18T10:58:23.363Z,16.40
2018-10-18T11:01:23.780Z,16.40
2018-10-18T11:03:53.530Z,16.63
2018-10-18T11:06:22.289Z,16.90
2018-10-18T11:08:50.834Z,16.30
2018-10-18T11:11:19.885Z,15.90
2018-10-18T11:13:48.636Z,15.37
2018-10-18T11:16:17.153Z,14.17
2018-10-18T11:18:45.701Z,14.57
2018-10-18T11:21:15.856Z,14.17
2018-10-18T11:23:44.309Z,14.10
2018-10-18T11:26:12.955Z,13.97
2018-10-18T11:28:41.415Z,14.07
2018-10-18T11:31:10.162Z,13.57
2018-10-18T11:33:38.705Z,14.10
2018-10-18T11:36:07.195Z,13.40
2018-10-18T11:38:35.721Z,14.67
2018-10-18T11:41:04.323Z,14.17
2018-10-18T11:43:32.994Z,13.83
2018-10-18T11:46:01.571Z,15.20
2018-10-18T11:48:30.185Z,14.40
2018-10-18T11:50:58.637Z,14.20
2018-10-18T11:53:27.194Z,13.97
2018-10-18T11:55:55.736Z,15.73
2018-10-18T11:58:24.370Z,15.47
2018-10-18T12:00:52.905Z,15.60
2018-10-18T12:03:21.371Z,15.17
2018-10-18T12:05:49.869Z,14.87
2018-10-18T12:08:18.497Z,15.17
2018-10-18T12:10:46.898Z,14.67
2018-10-18T12:13:15.450Z,13.83
2018-10-18T12:15:43.939Z,14.13
2018-10-18T12:18:12.421Z,15.60
2018-10-18T12:20:41.004Z,14.63
2018-10-18T12:23:09.705Z,13.77
2018-10-18T12:25:38.230Z,13.63
2018-10-18T12:28:06.726Z,13.83
2018-10-18T12:30:35.204Z,13.87
2018-10-18T12:33:03.721Z,14.20
2018-10-18T12:35:32.168Z,13.23
2018-10-18T12:38:00.720Z,13.10
2018-10-18T12:40:29.826Z,14.57
2018-10-18T12:42:58.287Z,13.50
2018-10-18T12:45:26.828Z,13.40
2018-10-18T12:47:55.393Z,13.10
2018-10-18T12:50:23.854Z,13.63
2018-10-18T12:52:52.368Z,13.97
2018-10-18T12:55:20.850Z,14.77
2018-10-18T12:57:49.344Z,15.10
2018-10-18T13:00:17.885Z,13.77
2018-10-18T13:02:46.339Z,14.43
2018-10-18T13:05:14.947Z,14.90
2018-10-18T13:07:43.538Z,14.40
2018-10-18T13:10:12.703Z,13.30
2018-10-18T13:12:41.731Z,12.87
2018-10-18T13:15:11.323Z,13.20
2018-10-18T13:17:39.902Z,12.63
2018-10-18T13:20:09.546Z,13.00
2018-10-18T13:22:38.145Z,11.47
2018-10-18T13:25:08.068Z,10.80
2018-10-18T13:27:37.049Z,11.60
2018-10-18T13:30:07.361Z,11.63
2018-10-18T13:32:35.874Z,10.73
2018-10-18T13:35:04.497Z,11.50
2018-10-18T13:37:33.024Z,11.63
2018-10-18T13:40:01.635Z,11.73
2018-10-18T13:42:30.204Z,10.27
2018-10-18T13:44:58.664Z,11.17
2018-10-18T13:47:27.241Z,10.70
2018-10-18T13:49:56.438Z,9.97
2018-10-18T13:52:24.961Z,11.63
2018-10-18T13:54:53.448Z,11.77
2018-10-18T13:57:21.932Z,10.70
2018-10-18T14:00:20.015Z,10.57
2018-10-18T14:02:48.787Z,11.70
2018-10-18T14:05:18.523Z,10.17
2018-10-18T14:07:46.991Z,11.17
2018-10-18T14:10:15.482Z,11.63
2018-10-18T14:12:43.961Z,11.27
2018-10-18T14:15:12.916Z,11.15
2018-10-18T14:17:41.611Z,10.33
2018-10-18T14:20:10.635Z,10.40
2018-10-18T14:22:39.401Z,10.87
2018-10-18T14:25:08.180Z,10.67
2018-10-18T14:27:36.733Z,11.17
2018-10-18T14:30:06.520Z,10.13
2018-10-18T14:32:35.017Z,11.20
2018-10-18T14:35:03.613Z,10.97
2018-10-18T14:37:32.166Z,10.00
2018-10-18T14:40:00.637Z,10.53
2018-10-18T14:42:29.099Z,9.87
2018-10-18T14:44:57.628Z,10.70
2018-10-18T14:47:26.370Z,10.53
2018-10-18T14:49:54.891Z,10.77
2018-10-18T14:52:23.317Z,10.03
2018-10-18T14:54:51.785Z,9.73
2018-10-18T14:57:20.329Z,9.67
2018-10-18T14:59:48.867Z,10.13
2018-10-18T15:02:17.445Z,9.47
2018-10-18T15:04:45.996Z,9.30
2018-10-18T15:07:14.458Z,8.90
2018-10-18T15:09:43.097Z,9.80
2018-10-18T15:12:11.582Z,8.80
2018-10-18T15:14:40.058Z,9.87
2018-10-18T15:17:08.662Z,9.33
2018-10-18T15:19:37.189Z,10.70
2018-10-18T15:22:06.015Z,11.07
2018-10-18T15:24:34.542Z,11.90
2018-10-18T15:27:03.116Z,13.07
2018-10-18T15:29:31.523Z,12.43
2018-10-18T15:32:00.130Z,12.10
2018-10-18T15:34:28.824Z,13.23
2018-10-18T15:36:57.268Z,11.97
2018-10-18T15:39:25.909Z,12.43
2018-10-18T15:41:54.937Z,11.50
2018-10-18T15:44:23.606Z,11.00
2018-10-18T15:46:52.136Z,11.13
2018-10-18T15:49:20.640Z,11.93
2018-10-18T15:51:49.143Z,10.70
2018-10-18T15:54:18.479Z,11.17
2018-10-18T15:56:46.869Z,9.63
2018-10-18T15:59:15.699Z,9.50
2018-10-18T16:01:44.249Z,9.97
2018-10-18T16:04:12.752Z,8.83
2018-10-18T16:06:41.252Z,8.63
2018-10-18T16:09:11.744Z,8.90
2018-10-18T16:11:40.266Z,9.87
2018-10-18T16:14:09.249Z,8.43
2018-10-18T16:16:37.774Z,9.47
2018-10-18T16:19:06.617Z,11.43
2018-10-18T16:21:35.252Z,9.97
2018-10-18T16:24:03.798Z,9.47
2018-10-18T16:26:32.376Z,9.20
2018-10-18T16:29:00.966Z,8.33
2018-10-18T16:31:29.691Z,8.80
2018-10-18T16:33:58.256Z,8.13
2018-10-18T16:36:27.503Z,9.40
2018-10-18T16:38:56.145Z,8.60
2018-10-18T16:41:25.019Z,8.10
2018-10-18T16:43:53.479Z,6.97
2018-10-18T16:46:22.197Z,6.17
2018-10-18T16:48:51.202Z,6.17
2018-10-18T16:51:19.919Z,6.30
2018-10-18T16:53:48.523Z,5.63
2018-10-18T16:56:17.051Z,5.03
2018-10-18T16:58:45.876Z,5.00
2018-10-18T17:01:14.444Z,4.80
2018-10-18T17:03:43.147Z,4.60
2018-10-18T17:06:11.662Z,5.17
2018-10-18T17:08:40.139Z,5.40
2018-10-18T17:11:10.121Z,6.00
2018-10-18T17:13:38.894Z,5.93
2018-10-18T17:16:07.964Z,4.90
2018-10-18T17:18:37.548Z,5.73
2018-10-18T17:21:06.292Z,4.57
2018-10-18T17:23:34.898Z,3.53
2018-10-18T17:26:03.510Z,4.27
2018-10-18T17:28:31.967Z,3.50
2018-10-18T17:31:01.401Z,3.70
2018-10-18T17:33:29.900Z,3.90
2018-10-18T17:35:58.406Z,3.10
2018-10-18T17:38:26.916Z,3.67
2018-10-18T17:40:56.304Z,3.30
2018-10-18T17:43:24.851Z,3.20
2018-10-18T17:45:53.334Z,3.00
2018-10-18T17:48:21.799Z,3.20
2018-10-18T17:50:50.912Z,3.00
2018-10-18T17:53:19.365Z,3.80
2018-10-18T17:55:47.915Z,3.40
2018-10-18T17:58:16.561Z,2.57
2018-10-18T18:00:44.987Z,2.60
2018-10-18T18:03:13.622Z,2.70
2018-10-18T18:05:42.163Z,2.87
2018-10-18T18:08:10.646Z,2.37
2018-10-18T18:10:39.218Z,2.70
2018-10-18T18:13:07.700Z,2.50
2018-10-18T18:15:36.179Z,2.20
2018-10-18T18:18:04.938Z,3.00
2018-10-18T18:20:33.582Z,2.77
2018-10-18T18:23:02.053Z,3.23
2018-10-18T18:25:30.491Z,3.20
2018-10-18T18:27:58.985Z,3.20
2018-10-18T18:30:27.442Z,3.20
2018-10-18T18:32:55.906Z,3.07
2018-10-18T18:35:24.423Z,3.67
2018-10-18T18:37:53.078Z,2.57
2018-10-18T18:40:21.515Z,2.83
2018-10-18T18:42:49.991Z,3.83
2018-10-18T18:45:24.451Z,2.80
2018-10-18T18:47:53.114Z,2.50
2018-10-18T18:50:21.583Z,2.83
2018-10-18T18:52:50.083Z,2.47
2018-10-18T18:55:18.741Z,2.37
2018-10-18T18:57:47.183Z,1.97
2018-10-18T19:00:15.795Z,1.50
2018-10-18T19:02:44.273Z,1.90
2018-10-18T19:05:12.772Z,1.90
2018-10-18T19:07:41.385Z,1.80
2018-10-18T19:10:10.729Z,2.13
2018-10-18T19:12:39.176Z,2.00
2018-10-18T19:15:08.883Z,1.43
2018-10-18T19:17:38.400Z,1.50
2018-10-18T19:20:06.952Z,2.00
2018-10-18T19:22:35.484Z,1.43
2018-10-18T19:25:04.025Z,1.83
2018-10-18T19:27:32.511Z,1.73
2018-10-18T19:30:00.971Z,1.63
2018-10-18T19:32:29.518Z,1.80
2018-10-18T19:34:58.085Z,1.70
2018-10-18T19:37:26.529Z,1.97
2018-10-18T19:39:54.941Z,2.07
2018-10-18T19:42:23.426Z,1.67
2018-10-18T19:44:51.936Z,2.20
2018-10-18T19:47:20.416Z,1.17
2018-10-18T19:49:48.900Z,2.07
2018-10-18T19:52:17.449Z,1.77
2018-10-18T19:54:45.898Z,1.67
2018-10-18T19:57:14.497Z,1.70
2018-10-18T19:59:43.083Z,1.90
2018-10-18T20:02:11.653Z,1.63
2018-10-18T20:04:40.030Z,1.80
2018-10-18T20:07:08.496Z,1.90
2018-10-18T20:09:36.965Z,1.83
2018-10-18T20:12:05.527Z,1.87
2018-10-18T20:14:34.156Z,1.80
2018-10-18T20:17:02.633Z,1.63
2018-10-18T20:19:31.107Z,1.63
2018-10-18T20:21:59.588Z,2.43
2018-10-18T20:24:28.115Z,1.90
2018-10-18T20:26:56.635Z,3.20
2018-10-18T20:29:25.088Z,2.30
2018-10-18T20:31:53.828Z,2.77
2018-10-18T20:34:22.288Z,2.57
2018-10-18T20:36:50.820Z,2.70
2018-10-18T20:39:19.395Z,2.47
2018-10-18T20:41:48.024Z,2.97
2018-10-18T20:44:16.598Z,2.17
2018-10-18T20:46:45.153Z,2.07
2018-10-18T20:49:14.318Z,2.70
2018-10-18T20:51:42.803Z,2.73
2018-10-18T20:54:11.357Z,2.93
2018-10-18T20:56:39.969Z,2.23
2018-10-18T20:59:08.575Z,2.00
2018-10-18T21:01:37.165Z,2.60
2018-10-18T21:04:05.920Z,2.17
2018-10-18T21:06:34.625Z,1.60
2018-10-18T21:09:03.966Z,2.37
2018-10-18T21:11:32.455Z,2.30
2018-10-18T21:14:01.000Z,2.30
2018-10-18T21:16:29.543Z,2.07
2018-10-18T21:18:58.064Z,1.90
2018-10-18T21:21:26.749Z,2.30
2018-10-18T21:23:55.320Z,1.77
2018-10-18T21:26:23.820Z,1.43
2018-10-18T21:28:52.416Z,1.60
2018-10-18T21:31:21.940Z,2.03
2018-10-18T21:33:50.722Z,1.90
2018-10-18T21:36:19.348Z,1.80
2018-10-18T21:38:48.051Z,1.40
2018-10-18T21:41:16.734Z,1.60
2018-10-18T21:43:45.395Z,2.00
2018-10-18T21:46:13.830Z,1.87
2018-10-18T21:48:42.664Z,2.30
2018-10-18T21:51:11.207Z,1.67
2018-10-18T21:53:39.695Z,1.80
2018-10-18T21:56:08.242Z,1.97
2018-10-18T21:58:36.758Z,1.90
2018-10-18T22:01:05.552Z,1.67
2018-10-18T22:03:34.073Z,2.13
2018-10-18T22:06:03.114Z,2.07
2018-10-18T22:08:31.622Z,2.37
2018-10-18T22:11:00.801Z,2.00
2018-10-18T22:13:29.456Z,2.00
2018-10-18T22:15:57.938Z,2.73
2018-10-18T22:18:26.476Z,1.70
2018-10-18T22:20:54.993Z,1.70
2018-10-18T22:23:23.584Z,2.23
2018-10-18T22:25:52.289Z,2.00
2018-10-18T22:28:20.749Z,1.93
2018-10-18T22:30:49.199Z,2.30
2018-10-18T22:33:17.729Z,1.63
2018-10-18T22:35:46.393Z,2.07
2018-10-18T22:38:14.822Z,2.00
2018-10-18T22:40:44.030Z,1.70
2018-10-18T22:43:12.541Z,2.27
2018-10-18T22:45:44.656Z,2.20
2018-10-18T22:48:13.080Z,1.43
2018-10-18T22:50:41.547Z,2.20
2018-10-18T22:53:10.059Z,1.80
2018-10-18T22:55:38.471Z,2.33
2018-10-18T22:58:06.940Z,1.60
2018-10-18T23:00:35.415Z,2.13
2018-10-18T23:03:03.890Z,1.70
2018-10-18T23:05:32.384Z,2.40
2018-10-18T23:08:00.875Z,2.03
2018-10-18T23:10:29.357Z,2.33
2018-10-18T23:12:57.837Z,2.20
2018-10-18T23:15:26.289Z,2.03
2018-10-18T23:17:54.739Z,2.37
2018-10-18T23:20:23.179Z,2.43
2018-10-18T23:22:52.617Z,2.23
2018-10-18T23:25:21.086Z,2.43
2018-10-18T23:27:49.577Z,2.47
2018-10-18T23:30:18.147Z,1.83
2018-10-18T23:32:46.697Z,2.87
2018-10-18T23:35:15.308Z,1.93
2018-10-18T23:37:44.050Z,1.97
2018-10-18T23:40:12.529Z,2.07
2018-10-18T23:42:41.086Z,2.20
2018-10-18T23:45:09.969Z,2.00
2018-10-18T23:47:38.413Z,2.47
2018-10-18T23:50:07.003Z,2.40
2018-10-18T23:52:35.799Z,2.80
2018-10-18T23:55:04.294Z,2.40
2018-10-18T23:57:32.874Z,2.60
